Tomahawk, WI

8:10 AM CDT on June 23, 2017 (GMT -0500)
Tomahawk

Weather History for KTKV - October, 2012

Change the Weather History Date:

Monday, October 29, 2012

  Actual Average (KRHI) Record (KRHI)
Temperature  
Mean Temperature 30 °F -  
Max Temperature 46 °F 49 °F 71 °F (1937)
Min Temperature 14 °F 29 °F 8 °F (1925)
Degree Days  
Heating Degree Days 35    
Moisture  
Dew Point 19 °F    
Average Humidity 71    
Maximum Humidity 93    
Minimum Humidity 34    
Precipitation  
Precipitation 0.00 in - - ()
Sea Level Pressure  
Sea Level Pressure 30.31 in    
Wind  
Wind Speed 1 mph (NNE)    
Max Wind Speed 8 mph    
Max Gust Speed -    
Visibility 10 miles    
Events      
Averages and records for this station are not official NWS values.
T = Trace of Precipitation, MM = Missing Value Source: NWS Daily Summary

Daily Weather History Graph

Daily Weather History Graph

Search for Another Location

Airport or City:

Trip Planner

Search our weather history database for the weather conditions in past years. The results will help you decide how hot, cold, wet, or windy it might be!

Date:

Astronomy

Oct. 29, 2012 Rise Set
Actual Time 7:35 AM CDT 5:49 PM CDT
Civil Twilight 7:04 AM CDT 6:20 PM CDT
Nautical Twilight 6:29 AM CDT 6:55 PM CDT
Astronomical Twilight 5:55 AM CDT 7:29 PM CDT
Moon 5:39 PM CDT (10/29) 7:27 AM CDT (10/29)
Length of Visible Light 11h 16m
Length of Day
10h 14m
Full, 100% of the Moon is Illuminated
Oct 29
Full
Oct 29
Full
Nov 6
Last Quarter
Nov 13
New
Nov 20
First Quarter

Hourly Weather History & Observations

Time (CDT) Temp. Windchill Dew Point Humidity Pressure Visibility Wind Dir Wind Speed Gust Speed Precip Events Conditions
12:15 AM 21.2 °F - 19.4 °F 93% 30.32 in 10.0 mi Calm Calm - N/A   Clear
12:35 AM 19.4 °F - 17.6 °F 93% 30.32 in 10.0 mi Calm Calm - N/A   Clear
12:55 AM 19.4 °F - 17.6 °F 93% 30.32 in 10.0 mi Calm Calm - N/A   Clear
1:15 AM 19.4 °F - 17.6 °F 93% 30.32 in 10.0 mi Calm Calm - N/A   Clear
1:35 AM 17.6 °F - 15.8 °F 93% 30.33 in 10.0 mi Calm Calm - N/A   Clear
1:55 AM 19.4 °F - 17.6 °F 93% 30.33 in 10.0 mi Calm Calm - N/A   Clear
2:15 AM 17.6 °F - 15.8 °F 93% 30.33 in 10.0 mi Calm Calm - N/A   Clear
2:35 AM 17.6 °F - 15.8 °F 93% 30.33 in 10.0 mi Calm Calm - N/A   Clear
2:55 AM 19.4 °F - 17.6 °F 93% 30.34 in 10.0 mi Calm Calm - N/A   Clear
3:15 AM 17.6 °F - 14.0 °F 86% 30.33 in 10.0 mi Calm Calm - N/A   Clear
3:35 AM 17.6 °F - 14.0 °F 86% 30.34 in 10.0 mi Calm Calm - N/A   Clear
3:55 AM 17.6 °F - 14.0 °F 86% 30.34 in 10.0 mi Calm Calm - N/A   Clear
4:15 AM 17.6 °F - 14.0 °F 86% 30.33 in 10.0 mi Calm Calm - N/A   Clear
4:35 AM 17.6 °F - 14.0 °F 86% 30.34 in 10.0 mi Calm Calm - N/A   Clear
4:55 AM 17.6 °F - 15.8 °F 93% 30.34 in 10.0 mi Calm Calm - N/A   Clear
5:15 AM 15.8 °F - 14.0 °F 93% 30.34 in 10.0 mi Calm Calm - N/A   Scattered Clouds
5:55 AM 14.0 °F - 12.2 °F 93% 30.35 in 10.0 mi Calm Calm - N/A   Clear
6:15 AM 14.0 °F - 12.2 °F 93% 30.35 in 10.0 mi Calm Calm - N/A   Clear
6:35 AM 15.8 °F - 12.2 °F 86% 30.34 in 10.0 mi Calm Calm - N/A   Clear
6:55 AM 17.6 °F - 14.0 °F 86% 30.35 in 10.0 mi Calm Calm - N/A   Clear
7:15 AM 14.0 °F - 12.2 °F 93% 30.35 in 10.0 mi Calm Calm - N/A   Clear
7:35 AM 15.8 °F - 12.2 °F 86% 30.35 in 10.0 mi Calm Calm - N/A   Clear
7:55 AM 14.0 °F - 12.2 °F 93% 30.36 in 10.0 mi Calm Calm - N/A   Clear
8:15 AM 14.0 °F - 12.2 °F 93% 30.36 in 10.0 mi Calm Calm - N/A   Clear
8:35 AM 19.4 °F - 17.6 °F 93% 30.37 in 10.0 mi Calm Calm - N/A   Clear
8:55 AM 21.2 °F - 19.4 °F 93% 30.37 in 10.0 mi Calm Calm - N/A   Clear
9:15 AM 24.8 °F - 23.0 °F 93% 30.36 in 10.0 mi Calm Calm - N/A   Clear
9:35 AM 28.4 °F - 24.8 °F 86% 30.37 in 10.0 mi Calm Calm - N/A   Clear
9:55 AM 30.2 °F - 28.4 °F 93% 30.36 in 10.0 mi Calm Calm - N/A   Clear
10:15 AM 32.0 °F - 28.4 °F 87% 30.36 in 10.0 mi Calm Calm - N/A   Clear
10:35 AM 33.8 °F - 28.4 °F 81% 30.36 in 10.0 mi Calm Calm - N/A   Clear
10:55 AM 35.6 °F - 28.4 °F 75% 30.35 in 10.0 mi Calm Calm - N/A   Clear
11:15 AM 37.4 °F 34.9 °F 24.8 °F 60% 30.35 in 10.0 mi NNW 3.5 mph - N/A   Clear
11:35 AM 41.0 °F - 23.0 °F 49% 30.35 in 10.0 mi Calm Calm - N/A   Clear
11:55 AM 41.0 °F - 21.2 °F 45% 30.34 in 10.0 mi Calm Calm - N/A   Clear
12:35 PM 42.8 °F 40.1 °F 19.4 °F 39% 30.32 in 10.0 mi NE 4.6 mph - N/A   Clear
12:55 PM 42.8 °F 40.1 °F 19.4 °F 39% 30.31 in 10.0 mi ENE 4.6 mph - N/A   Clear
1:15 PM 44.6 °F 42.2 °F 19.4 °F 37% 30.31 in 10.0 mi East 4.6 mph - N/A   Clear
1:35 PM 44.6 °F 41.4 °F 19.4 °F 37% 30.30 in 10.0 mi ENE 5.8 mph - N/A   Clear
1:55 PM 44.6 °F 42.2 °F 19.4 °F 37% 30.29 in 10.0 mi East 4.6 mph - N/A   Clear
2:15 PM 44.6 °F 40.2 °F 19.4 °F 37% 30.29 in 10.0 mi ENE 8.1 mph - N/A   Clear
2:35 PM 44.6 °F 42.2 °F 19.4 °F 37% 30.29 in 10.0 mi NNE 4.6 mph - N/A   Clear
2:55 PM 46.4 °F 43.5 °F 19.4 °F 34% 30.29 in 10.0 mi NE 5.8 mph - N/A   Clear
3:15 PM 44.6 °F - 19.4 °F 37% 30.29 in 10.0 mi Calm Calm - N/A   Clear
3:35 PM 44.6 °F - 19.4 °F 37% 30.28 in 10.0 mi Calm Calm - N/A   Clear
3:55 PM 46.4 °F 45.2 °F 21.2 °F 37% 30.27 in 10.0 mi NE 3.5 mph - N/A   Clear
4:15 PM 46.4 °F 45.2 °F 21.2 °F 37% 30.28 in 10.0 mi NNE 3.5 mph - N/A   Clear
4:35 PM 44.6 °F 42.2 °F 19.4 °F 37% 30.28 in 10.0 mi North 4.6 mph - N/A   Clear
4:55 PM 44.6 °F 42.2 °F 21.2 °F 39% 30.28 in 10.0 mi NE 4.6 mph - N/A   Clear
5:15 PM 42.8 °F 40.1 °F 21.2 °F 42% 30.28 in 10.0 mi North 4.6 mph - N/A   Clear
5:35 PM 41.0 °F 39.0 °F 21.2 °F 45% 30.27 in 10.0 mi North 3.5 mph - N/A   Clear
5:55 PM 39.2 °F - 21.2 °F 49% 30.27 in 10.0 mi Calm Calm - N/A   Clear
6:15 PM 33.8 °F - 23.0 °F 65% 30.27 in 10.0 mi Calm Calm - N/A   Clear
6:35 PM 32.0 °F - 23.0 °F 69% 30.27 in 10.0 mi Calm Calm - N/A   Clear
6:55 PM 33.8 °F - 23.0 °F 65% 30.27 in 10.0 mi Calm Calm - N/A   Clear
7:15 PM 30.2 °F - 21.2 °F 69% 30.27 in 10.0 mi Calm Calm - N/A   Clear
7:35 PM 28.4 °F - 21.2 °F 74% 30.27 in 10.0 mi Calm Calm - N/A   Clear
10:35 PM 33.8 °F 29.6 °F 24.8 °F 70% 30.23 in 10.0 mi NNE 4.6 mph - N/A   Clear
10:55 PM 32.0 °F - 23.0 °F 69% 30.23 in 10.0 mi Calm Calm - N/A   Clear
11:15 PM 30.2 °F 26.7 °F 23.0 °F 75% 30.23 in 10.0 mi NNW 3.5 mph - N/A   Clear
11:35 PM 28.4 °F - 23.0 °F 80% 30.23 in 10.0 mi Calm Calm - N/A   Clear
11:55 PM 26.6 °F 22.6 °F 23.0 °F 86% 30.22 in 10.0 mi NNW 3.5 mph - N/A   Clear